^^
Peaceful Hills Weather Station Historical Data
 
Daily Summary for November 29, 2020 Units:  English    Metric   Both
Daily Weekly Monthly Yearly Custom
  Current: High: Low: Average:
Temperature: 41 °F 43.4 °F 39.9 °F 41.4 °F
Dew Point: 38.6 °F 39.3 °F 35.1 °F 37.7 °F
Humidity: 91% 91% 76.6% 87%
Wind Speed: 1.4mph 8.8mph 0mph 0.2mph
Wind Gust: 18mph 18mph - -
WindWSW - - SE
Pressure: 30.03 in 30.14 in 30.00 in -
Precipitation: 0.40 in      
Historical Graphs
 
 
Tabular Data for November 29, 2020
Time Temperature Dew Point Pressure Wind Wind Speed Wind Gust Humidity Rainfall Rate (Hourly)
00:04 40.1 °F 36.9 °F 30.13 in Calm     88.4% 0.00 in
00:09 40 °F 36.7 °F 30.13 in Calm     88% 0.00 in
00:14 39.9 °F 36.6 °F 30.13 in Calm     88% 0.00 in
00:19 39.9 °F 36.4 °F 30.11 in Calm     87.4% 0.00 in
00:24 40 °F 36.6 °F 30.11 in Calm     87.8% 0.00 in
00:29 40 °F 36.6 °F 30.11 in Calm     87.6% 0.00 in
00:34 40 °F 36.5 °F 30.11 in Calm     87.2% 0.00 in
00:39 40.1 °F 36.3 °F 30.10 in Calm     86.4% 0.00 in
00:44 40.2 °F 36 °F 30.10 in Calm     84.8% 0.00 in
00:49 40.4 °F 36.1 °F 30.10 in Calm     84.6% 0.00 in
00:54 40.5 °F 36.1 °F 30.10 in Calm     84.6% 0.00 in
00:59 40.4 °F 35.8 °F 30.09 in Calm   2 mph 83.8% 0.00 in
01:04 40.6 °F 35.5 °F 30.09 in Calm   2 mph 82% 0.00 in
01:09 40.9 °F 35.5 °F 30.09 in Calm   2 mph 80.8% 0.00 in
01:14 41.1 °F 35.4 °F 30.08 in Calm     79.8% 0.00 in
01:19 41.4 °F 35.3 °F 30.09 in Calm     78.8% 0.00 in
01:24 41.5 °F 35.5 °F 30.09 in Calm     79.2% 0.00 in
01:29 41.3 °F 35.3 °F 30.09 in Calm     78.8% 0.00 in
01:34 41.2 °F 35.2 °F 30.09 in Calm     79% 0.00 in
01:39 41.2 °F 35.2 °F 30.08 in Calm     79% 0.00 in
01:44 41.3 °F 35.2 °F 30.09 in Calm     78.8% 0.00 in
01:49 41.4 °F 35.1 °F 30.09 in Calm     78% 0.00 in
01:54 41.5 °F 35.2 °F 30.08 in Calm     78% 0.00 in
01:59 41.5 °F 35.2 °F 30.09 in Calm     78% 0.00 in
02:04 41.5 °F 35.2 °F 30.08 in Calm     78.2% 0.00 in
02:09 41.3 °F 35.3 °F 30.08 in Calm     79% 0.00 in
02:14 41.1 °F 35.3 °F 30.08 in Calm     79.4% 0.00 in
02:19 41 °F 35.3 °F 30.08 in Calm     80% 0.00 in
02:24 41.1 °F 35.7 °F 30.08 in Calm     81% 0.00 in
02:29 41.2 °F 35.6 °F 30.10 in Calm     80.2% 0.00 in
02:34 41.6 °F 36.5 °F 30.10 in Calm     81.8% 0.00 in
02:39 41.8 °F 36.6 °F 30.09 in Calm     81.6% 0.00 in
02:44 41.8 °F 36.9 °F 30.09 in Calm     82.8% 0.00 in
02:49 41.9 °F 36.7 °F 30.07 in Calm     81.6% 0.00 in
02:54 42.2 °F 36.6 °F 30.07 in Calm     80.6% 0.00 in
02:59 42.5 °F 36.5 °F 30.07 in Calm     79.4% 0.00 in
03:04 42.7 °F 36.5 °F 30.07 in Calm     78.6% 0.00 in
03:09 42.9 °F 36.2 °F 30.08 in Calm     77% 0.00 in
03:14 43 °F 36.3 °F 30.08 in Calm     77% 0.00 in
03:19 43.1 °F 36.4 °F 30.08 in Calm     77.2% 0.00 in
03:24 43.1 °F 36.3 °F 30.08 in Calm     76.6% 0.00 in
03:29 43.2 °F 36.5 °F 30.09 in Calm     77% 0.00 in
03:34 43.4 °F 37.2 °F 30.10 in Calm     78.8% 0.00 in
03:39 43.4 °F 36.8 °F 30.10 in Calm     77.4% 0.00 in
03:44 43.4 °F 36.9 °F 30.10 in Calm     77.6% 0.00 in
03:49 43.3 °F 37.2 °F 30.10 in Calm     78.8% 0.00 in
03:54 43.3 °F 37.6 °F 30.10 in Calm     80.2% 0.00 in
03:59 43.1 °F 38 °F 30.09 in Calm     81.8% 0.00 in
04:04 42.9 °F 37.9 °F 30.09 in Calm     82.4% 0.00 in
04:09 42.8 °F 38 °F 30.09 in Calm     83% 0.00 in
04:14 42.7 °F 37.9 °F 30.08 in Calm     83% 0.00 in
04:19 42.7 °F 38 °F 30.08 in Calm     83.4% 0.00 in
04:24 42.7 °F 38.3 °F 30.08 in Calm     84.4% 0.00 in
04:29 42.7 °F 38.5 °F 30.08 in Calm     85% 0.00 in
04:34 42.7 °F 38.6 °F 30.08 in Calm     85.4% 0.00 in
04:39 42.7 °F 39.1 °F 30.08 in Calm     86.8% 0.00 in
04:44 42.7 °F 39.1 °F 30.08 in Calm     87% 0.00 in
04:49 42.6 °F 39 °F 30.08 in Calm     87% 0.00 in
04:54 42.5 °F 39.3 °F 30.08 in Calm     88.4% 0.00 in
04:59 42.4 °F 39.2 °F 30.07 in Calm     88.2% 0.00 in
05:04 42.3 °F 39.2 °F 30.07 in Calm     88.6% 0.00 in
05:09 42.2 °F 39.2 °F 30.07 in Calm     89% 0.00 in
05:14 42.2 °F 39.2 °F 30.07 in Calm     89% 0.00 in
05:19 42.2 °F 39.2 °F 30.07 in Calm     89% 0.00 in
05:24 42.1 °F 39.1 °F 30.08 in Calm     89% 0.00 in
05:29 42.1 °F 39.1 °F 30.08 in Calm     89% 0.00 in
05:34 42 °F 39 °F 30.08 in Calm     89% 0.00 in
05:39 41.8 °F 38.8 °F 30.08 in Calm     89% 0.00 in
05:44 41.7 °F 38.7 °F 30.08 in Calm     89% 0.01 in
05:49 41.6 °F 38.6 °F 30.09 in Calm     89.2% 0.01 in
05:54 41.3 °F 38.4 °F 30.08 in Calm     89.2% 0.01 in
05:59 41.2 °F 38.5 °F 30.08 in Calm     90% 0.02 in
06:04 41.1 °F 38.4 °F 30.08 in Calm     90% 0.02 in
06:09 40.9 °F 38.2 °F 30.08 in Calm     90% 0.02 in
06:14 40.8 °F 38.3 °F 30.08 in Calm     90.6% 0.03 in
06:19 40.7 °F 38.3 °F 30.08 in Calm   4 mph 91% 0.03 in
06:24 40.6 °F 38.2 °F 30.08 in Calm   2 mph 91% 0.04 in
06:29 40.5 °F 38.1 °F 30.08 in Calm   2 mph 91% 0.05 in
06:34 40.4 °F 38 °F 30.08 in Calm   2 mph 91% 0.07 in
06:39 40.4 °F 38 °F 30.08 in Calm   2 mph 91% 0.08 in
06:44 40.4 °F 38 °F 30.08 in Calm     91% 0.08 in
06:49 40.4 °F 38 °F 30.09 in Calm     91% 0.08 in
06:54 40.5 °F 38.1 °F 30.09 in Calm     91% 0.08 in
06:59 40.5 °F 38.1 °F 30.09 in Calm     91% 0.09 in
07:04 40.5 °F 38.1 °F 30.08 in Calm     91% 0.10 in
07:09 40.5 °F 38.1 °F 30.08 in Calm     91% 0.10 in
07:14 40.5 °F 38.1 °F 30.08 in Calm     91% 0.09 in
07:19 40.6 °F 38.2 °F 30.09 in Calm     91% 0.09 in
07:24 40.7 °F 38.3 °F 30.10 in Calm     91% 0.09 in
07:29 40.7 °F 38.3 °F 30.10 in Calm     91% 0.09 in
07:34 40.8 °F 38.4 °F 30.10 in Calm     91% 0.07 in
07:39 40.8 °F 38.4 °F 30.09 in Calm     91% 0.06 in
07:44 40.8 °F 38.4 °F 30.09 in Calm     91% 0.05 in
07:49 40.9 °F 38.5 °F 30.09 in Calm     91% 0.05 in
07:54 40.9 °F 38.5 °F 30.08 in Calm   14 mph 91% 0.05 in
07:59 40.9 °F 38.5 °F 30.08 in Calm   14 mph 91% 0.06 in
08:04 40.9 °F 38.5 °F 30.08 in Calm   2 mph 91% 0.06 in
08:09 40.9 °F 38.5 °F 30.08 in Calm     91% 0.05 in
08:14 40.9 °F 38.5 °F 30.09 in Calm     91% 0.05 in
08:19 40.9 °F 38.5 °F 30.10 in Calm     91% 0.05 in
08:24 40.9 °F 38.5 °F 30.10 in Calm     91% 0.05 in
08:29 40.9 °F 38.5 °F 30.09 in Calm   5 mph 91% 0.04 in
08:34 40.9 °F 38.5 °F 30.09 in Calm     91% 0.04 in
08:39 40.9 °F 38.5 °F 30.09 in Calm     91% 0.05 in
08:44 40.9 °F 38.5 °F 30.09 in Calm   4 mph 91% 0.05 in
08:49 41 °F 38.6 °F 30.11 in Calm   4 mph 91% 0.06 in
08:54 41 °F 38.6 °F 30.10 in Calm     91% 0.06 in
08:59 41.1 °F 38.7 °F 30.10 in Calm     91% 0.05 in
09:04 41 °F 38.6 °F 30.11 in Calm     91% 0.05 in
09:09 40.9 °F 38.5 °F 30.12 in Calm     91% 0.05 in
09:14 40.9 °F 38.5 °F 30.13 in Calm     91% 0.07 in
09:19 40.9 °F 38.5 °F 30.13 in Calm     91% 0.08 in
09:24 40.9 °F 38.5 °F 30.14 in Calm     91% 0.10 in
09:29 40.9 °F 38.5 °F 30.14 in Calm     91% 0.12 in
09:34 40.9 °F 38.5 °F 30.13 in Calm     91% 0.13 in
09:39 40.8 °F 38.4 °F 30.14 in Calm     91% 0.14 in
09:44 40.8 °F 38.4 °F 30.14 in Calm     91% 0.14 in
09:49 40.8 °F 38.4 °F 30.13 in Calm     91% 0.14 in
09:54 40.8 °F 38.4 °F 30.12 in Calm     91% 0.14 in
09:59 40.7 °F 38.3 °F 30.11 in Calm     91% 0.14 in
10:04 40.7 °F 38.3 °F 30.11 in Calm     91% 0.13 in
10:09 40.8 °F 38.4 °F 30.11 in Calm     91% 0.12 in
10:14 40.9 °F 38.5 °F 30.11 in Calm     91% 0.12 in
10:19 40.9 °F 38.5 °F 30.11 in Calm     91% 0.12 in
10:24 41.1 °F 38.7 °F 30.10 in Calm     91% 0.10 in
10:29 41.3 °F 38.9 °F 30.10 in Calm     91% 0.09 in
10:34 41.4 °F 39 °F 30.08 in Calm     91% 0.08 in
10:39 41.4 °F 39 °F 30.06 in NE 4.2 mph 16 mph 91% 0.07 in
10:44 41.3 °F 38.9 °F 30.04 in ENE 8.8 mph 16 mph 91% 0.06 in
10:49 41.2 °F 38.8 °F 30.00 in East 2.2 mph 16 mph 91% 0.07 in
10:54 41 °F 38.6 °F 30.01 in SW 3.8 mph 18 mph 91% 0.07 in
10:59 41 °F 38.6 °F 30.03 in WSW 1.4 mph 18 mph 91% 0.06 in
Hot Springs, Arkansas, USA
Compliments of Weather Underground - 4 mb